Time;durP1;ratioP1;P1;durP2;ratioP2;P2;SDS_P1;SDS_P2;PMS_P1;PMS_P2;Temp;Humidity;BMP_temperature;BMP_pressure;BME280_temperature;BME280_humidity;BME280_pressure;Samples;Min_cycle;Max_cycle;Signal;HPM_P1;HPM_P2
2021/11/19 00:00:29;;;;;;;26.1;14.55;;;;;;;1.3;82.48926;96558.4;;;;
2021/11/19 00:01:33;;;;;;;26.1;14.55;;;;;;;1.3;82.48926;96558.4;;;;
2021/11/19 00:02:36;;;;;;;26.1;14.55;;;;;;;1.3;82.48926;96558.4;;;;
2021/11/19 00:03:37;;;;;;;26.1;14.55;;;;;;;1.3;82.48926;96558.4;;;;
2021/11/19 00:04:37;;;;;;;26.1;14.55;;;;;;;1.3;82.48926;96558.4;;;;
2021/11/19 00:05:40;;;;;;;26.1;14.55;;;;;;;1.3;82.48926;96558.4;;;;
2021/11/19 00:06:42;;;;;;;26.1;14.55;;;;;;;1.3;82.48926;96558.4;;;;
2021/11/19 00:07:43;;;;;;;26.1;14.55;;;;;;;1.3;82.48926;96558.4;;;;
2021/11/19 00:08:43;;;;;;;26.1;14.55;;;;;;;1.3;82.48926;96558.4;;;;
2021/11/19 00:09:44;;;;;;;26.1;14.55;;;;;;;1.3;82.48926;96558.4;;;;
2021/11/19 00:10:45;;;;;;;26.1;14.55;;;;;;;1.3;82.48926;96558.4;;;;
2021/11/19 00:11:45;;;;;;;26.1;14.55;;;;;;;1.3;82.48926;96558.4;;;;
2021/11/19 00:12:48;;;;;;;26.1;14.55;;;;;;;1.3;82.48926;96558.4;;;;
2021/11/19 00:13:49;;;;;;;26.1;14.55;;;;;;;1.3;82.48926;96558.4;;;;
2021/11/19 00:14:50;;;;;;;26.1;14.55;;;;;;;1.3;82.48926;96558.4;;;;
2021/11/19 00:15:52;;;;;;;26.1;14.55;;;;;;;1.3;82.48926;96558.4;;;;
2021/11/19 00:16:55;;;;;;;26.1;14.55;;;;;;;1.3;82.48926;96558.4;;;;
2021/11/19 00:17:58;;;;;;;26.1;14.55;;;;;;;1.3;82.48926;96558.4;;;;
2021/11/19 00:18:59;;;;;;;26.1;14.55;;;;;;;1.3;82.48926;96558.4;;;;
2021/11/19 00:20:00;;;;;;;26.1;14.55;;;;;;;1.3;82.48926;96558.4;;;;
2021/11/19 00:21:03;;;;;;;26.95;15.15;;;;;;;1.19;83.05371;96543.96;;;;
2021/11/19 00:22:05;;;;;;;26.95;15.15;;;;;;;1.19;83.05371;96543.96;;;;
2021/11/19 00:23:08;;;;;;;26.95;15.15;;;;;;;1.19;83.05371;96543.96;;;;
2021/11/19 00:24:08;;;;;;;26.95;15.15;;;;;;;1.19;83.05371;96543.96;;;;
2021/11/19 00:25:10;;;;;;;26.95;15.15;;;;;;;1.19;83.05371;96543.96;;;;
2021/11/19 00:26:11;;;;;;;26.95;15.15;;;;;;;1.19;83.05371;96543.96;;;;
2021/11/19 00:27:14;;;;;;;26.95;15.15;;;;;;;1.19;83.05371;96543.96;;;;
2021/11/19 00:28:18;;;;;;;26.95;15.15;;;;;;;1.19;83.05371;96543.96;;;;
2021/11/19 00:29:19;;;;;;;26.95;15.15;;;;;;;1.19;83.05371;96543.96;;;;
2021/11/19 00:30:20;;;;;;;26.95;15.15;;;;;;;1.19;83.05371;96543.96;;;;
2021/11/19 00:31:23;;;;;;;31.6;16.15;;;;;;;1.22;83.19531;96561.88;;;;
2021/11/19 00:32:25;;;;;;;31.6;16.15;;;;;;;1.22;83.19531;96561.88;;;;
2021/11/19 00:33:25;;;;;;;31.6;16.15;;;;;;;1.22;83.19531;96561.88;;;;
2021/11/19 00:34:26;;;;;;;31.6;16.15;;;;;;;1.22;83.19531;96561.88;;;;
2021/11/19 00:35:26;;;;;;;31.6;16.15;;;;;;;1.22;83.19531;96561.88;;;;
2021/11/19 00:36:27;;;;;;;31.6;16.15;;;;;;;1.22;83.19531;96561.88;;;;
2021/11/19 00:37:31;;;;;;;31.6;16.15;;;;;;;1.22;83.19531;96561.88;;;;
2021/11/19 00:38:32;;;;;;;31.6;16.15;;;;;;;1.22;83.19531;96561.88;;;;
2021/11/19 00:39:36;;;;;;;31.6;16.15;;;;;;;1.22;83.19531;96561.88;;;;
2021/11/19 00:40:37;;;;;;;31.6;16.15;;;;;;;1.22;83.19531;96561.88;;;;
2021/11/19 00:41:40;;;;;;;31.6;16.15;;;;;;;1.22;83.19531;96561.88;;;;
2021/11/19 00:42:43;;;;;;;33.9;16.85;;;;;;;1.3;83.20996;96557.97;;;;
2021/11/19 00:43:43;;;;;;;33.9;16.85;;;;;;;1.3;83.20996;96557.97;;;;
2021/11/19 00:44:44;;;;;;;33.9;16.85;;;;;;;1.3;83.20996;96557.97;;;;
2021/11/19 00:45:44;;;;;;;33.9;16.85;;;;;;;1.3;83.20996;96557.97;;;;
2021/11/19 00:46:46;;;;;;;33.9;16.85;;;;;;;1.3;83.20996;96557.97;;;;
2021/11/19 00:47:48;;;;;;;33.9;16.85;;;;;;;1.3;83.20996;96557.97;;;;
2021/11/19 00:48:49;;;;;;;33.9;16.85;;;;;;;1.3;83.20996;96557.97;;;;
2021/11/19 00:49:50;;;;;;;33.9;16.85;;;;;;;1.3;83.20996;96557.97;;;;
2021/11/19 00:50:50;;;;;;;33.9;16.85;;;;;;;1.3;83.20996;96557.97;;;;
2021/11/19 00:51:54;;;;;;;33.9;16.85;;;;;;;1.3;83.20996;96557.97;;;;
2021/11/19 00:52:56;;;;;;;27.4;15.75;;;;;;;1.37;83.14941;96583.03;;;;
2021/11/19 00:53:57;;;;;;;27.4;15.75;;;;;;;1.37;83.14941;96583.03;;;;
2021/11/19 00:54:59;;;;;;;27.4;15.75;;;;;;;1.37;83.14941;96583.03;;;;
2021/11/19 00:56:00;;;;;;;27.4;15.75;;;;;;;1.37;83.14941;96583.03;;;;
2021/11/19 00:57:01;;;;;;;27.4;15.75;;;;;;;1.37;83.14941;96583.03;;;;
2021/11/19 00:58:05;;;;;;;27.4;15.75;;;;;;;1.37;83.14941;96583.03;;;;
2021/11/19 00:59:07;;;;;;;27.4;15.75;;;;;;;1.37;83.14941;96583.03;;;;
2021/11/19 01:00:09;;;;;;;27.4;15.75;;;;;;;1.37;83.14941;96583.03;;;;
2021/11/19 01:01:14;;;;;;;27.4;15.75;;;;;;;1.37;83.14941;96583.03;;;;
2021/11/19 01:02:18;;;;;;;27.4;15.75;;;;;;;1.37;83.14941;96583.03;;;;
2021/11/19 01:03:21;;;;;;;34.3;17.6;;;;;;;1.42;83.30859;96563.37;;;;
2021/11/19 01:04:22;;;;;;;34.3;17.6;;;;;;;1.42;83.30859;96563.37;;;;
2021/11/19 01:05:23;;;;;;;34.3;17.6;;;;;;;1.42;83.30859;96563.37;;;;
2021/11/19 01:06:24;;;;;;;34.3;17.6;;;;;;;1.42;83.30859;96563.37;;;;
2021/11/19 01:07:24;;;;;;;34.3;17.6;;;;;;;1.42;83.30859;96563.37;;;;
2021/11/19 01:08:25;;;;;;;34.3;17.6;;;;;;;1.42;83.30859;96563.37;;;;
2021/11/19 01:09:27;;;;;;;34.3;17.6;;;;;;;1.42;83.30859;96563.37;;;;
2021/11/19 01:10:32;;;;;;;34.3;17.6;;;;;;;1.42;83.30859;96563.37;;;;
2021/11/19 01:11:36;;;;;;;34.3;17.6;;;;;;;1.42;83.30859;96563.37;;;;
2021/11/19 01:12:38;;;;;;;34.3;17.6;;;;;;;1.42;83.30859;96563.37;;;;
2021/11/19 01:13:40;;;;;;;34.3;17.6;;;;;;;1.42;83.30859;96563.37;;;;
2021/11/19 01:14:43;;;;;;;34.3;17.6;;;;;;;1.42;83.30859;96563.37;;;;
2021/11/19 01:15:47;;;;;;;34.3;17.6;;;;;;;1.42;83.30859;96563.37;;;;
2021/11/19 01:16:51;;;;;;;34.3;17.6;;;;;;;1.42;83.30859;96563.37;;;;
2021/11/19 01:17:55;;;;;;;34.3;17.6;;;;;;;1.42;83.30859;96563.37;;;;
2021/11/19 01:18:59;;;;;;;34.3;17.6;;;;;;;1.42;83.30859;96563.37;;;;
2021/11/19 01:20:05;;;;;;;34.3;17.6;;;;;;;1.42;83.30859;96563.37;;;;
2021/11/19 01:21:13;;;;;;;34.3;17.6;;;;;;;1.42;83.30859;96563.37;;;;
2021/11/19 01:22:19;;;;;;;34.3;17.6;;;;;;;1.42;83.30859;96563.37;;;;
2021/11/19 01:23:24;;;;;;;34.3;17.6;;;;;;;1.42;83.30859;96563.37;;;;
2021/11/19 01:24:27;;;;;;;34.3;17.6;;;;;;;1.42;83.30859;96563.37;;;;
2021/11/19 01:25:29;;;;;;;35.55;17.65;;;;;;;1.56;83.4707;96560.72;;;;
2021/11/19 01:26:33;;;;;;;35.55;17.65;;;;;;;1.56;83.4707;96560.72;;;;
2021/11/19 01:27:40;;;;;;;35.55;17.65;;;;;;;1.56;83.4707;96560.72;;;;
2021/11/19 01:28:41;;;;;;;35.55;17.65;;;;;;;1.56;83.4707;96560.72;;;;
2021/11/19 01:29:43;;;;;;;35.55;17.65;;;;;;;1.56;83.4707;96560.72;;;;
2021/11/19 01:30:43;;;;;;;35.55;17.65;;;;;;;1.56;83.4707;96560.72;;;;
2021/11/19 01:31:47;;;;;;;35.55;17.65;;;;;;;1.56;83.4707;96560.72;;;;
2021/11/19 01:32:51;;;;;;;35.55;17.65;;;;;;;1.56;83.4707;96560.72;;;;
2021/11/19 01:33:52;;;;;;;35.55;17.65;;;;;;;1.56;83.4707;96560.72;;;;
2021/11/19 01:34:52;;;;;;;35.55;17.65;;;;;;;1.56;83.4707;96560.72;;;;
2021/11/19 01:35:54;;;;;;;28;15.9;;;;;;;1.49;83.6875;96552.56;;;;
2021/11/19 01:36:55;;;;;;;28;15.9;;;;;;;1.49;83.6875;96552.56;;;;
2021/11/19 01:37:56;;;;;;;28;15.9;;;;;;;1.49;83.6875;96552.56;;;;
2021/11/19 01:38:57;;;;;;;28;15.9;;;;;;;1.49;83.6875;96552.56;;;;
2021/11/19 01:39:58;;;;;;;28;15.9;;;;;;;1.49;83.6875;96552.56;;;;
2021/11/19 01:40:58;;;;;;;28;15.9;;;;;;;1.49;83.6875;96552.56;;;;
2021/11/19 01:42:02;;;;;;;28;15.9;;;;;;;1.49;83.6875;96552.56;;;;
2021/11/19 01:43:07;;;;;;;28;15.9;;;;;;;1.49;83.6875;96552.56;;;;
2021/11/19 01:44:11;;;;;;;28;15.9;;;;;;;1.49;83.6875;96552.56;;;;
2021/11/19 01:45:16;;;;;;;28;15.9;;;;;;;1.49;83.6875;96552.56;;;;
2021/11/19 01:46:20;;;;;;;29.95;16.2;;;;;;;1.38;84.03223;96544.72;;;;
2021/11/19 01:47:24;;;;;;;29.95;16.2;;;;;;;1.38;84.03223;96544.72;;;;
2021/11/19 01:48:26;;;;;;;29.95;16.2;;;;;;;1.38;84.03223;96544.72;;;;
2021/11/19 01:49:30;;;;;;;29.95;16.2;;;;;;;1.38;84.03223;96544.72;;;;
2021/11/19 01:50:32;;;;;;;29.95;16.2;;;;;;;1.38;84.03223;96544.72;;;;
2021/11/19 01:51:37;;;;;;;29.95;16.2;;;;;;;1.38;84.03223;96544.72;;;;
2021/11/19 01:52:43;;;;;;;29.95;16.2;;;;;;;1.38;84.03223;96544.72;;;;
2021/11/19 01:53:48;;;;;;;29.95;16.2;;;;;;;1.38;84.03223;96544.72;;;;
2021/11/19 01:54:53;;;;;;;29.95;16.2;;;;;;;1.38;84.03223;96544.72;;;;
2021/11/19 01:55:57;;;;;;;29.95;16.2;;;;;;;1.38;84.03223;96544.72;;;;
2021/11/19 01:57:03;;;;;;;27.85;15.75;;;;;;;1.26;84.28027;96543.23;;;;
2021/11/19 01:58:09;;;;;;;27.85;15.75;;;;;;;1.26;84.28027;96543.23;;;;
2021/11/19 01:59:13;;;;;;;27.85;15.75;;;;;;;1.26;84.28027;96543.23;;;;
2021/11/19 02:00:18;;;;;;;27.85;15.75;;;;;;;1.26;84.28027;96543.23;;;;
2021/11/19 02:01:28;;;;;;;27.85;15.75;;;;;;;1.26;84.28027;96543.23;;;;
2021/11/19 02:02:34;;;;;;;27.85;15.75;;;;;;;1.26;84.28027;96543.23;;;;
2021/11/19 02:03:38;;;;;;;27.85;15.75;;;;;;;1.26;84.28027;96543.23;;;;
2021/11/19 02:04:45;;;;;;;27.85;15.75;;;;;;;1.26;84.28027;96543.23;;;;
2021/11/19 02:05:48;;;;;;;27.85;15.75;;;;;;;1.26;84.28027;96543.23;;;;
2021/11/19 02:06:55;;;;;;;27.85;15.75;;;;;;;1.26;84.28027;96543.23;;;;
2021/11/19 02:07:59;;;;;;;27.85;15.75;;;;;;;1.26;84.28027;96543.23;;;;
2021/11/19 02:09:05;;;;;;;27.85;15.75;;;;;;;1.26;84.28027;96543.23;;;;
2021/11/19 02:10:10;;;;;;;27.85;15.75;;;;;;;1.26;84.28027;96543.23;;;;
2021/11/19 02:11:19;;;;;;;27.85;15.75;;;;;;;1.26;84.28027;96543.23;;;;
2021/11/19 02:12:32;;;;;;;27.85;15.75;;;;;;;1.26;84.28027;96543.23;;;;
2021/11/19 02:13:44;;;;;;;27.85;15.75;;;;;;;1.26;84.28027;96543.23;;;;
2021/11/19 02:14:52;;;;;;;27.85;15.75;;;;;;;1.26;84.28027;96543.23;;;;
2021/11/19 02:16:03;;;;;;;27.85;15.75;;;;;;;1.26;84.28027;96543.23;;;;
2021/11/19 02:17:06;;;;;;;27.85;15.75;;;;;;;1.26;84.28027;96543.23;;;;
2021/11/19 02:18:08;;;;;;;22.95;13.6;;;;;;;1;84.39453;96537.42;;;;
2021/11/19 02:19:14;;;;;;;22.95;13.6;;;;;;;1;84.39453;96537.42;;;;
2021/11/19 02:20:19;;;;;;;22.95;13.6;;;;;;;1;84.39453;96537.42;;;;
2021/11/19 02:21:26;;;;;;;22.95;13.6;;;;;;;1;84.39453;96537.42;;;;
2021/11/19 02:22:32;;;;;;;22.95;13.6;;;;;;;1;84.39453;96537.42;;;;
2021/11/19 02:23:37;;;;;;;22.95;13.6;;;;;;;1;84.39453;96537.42;;;;
2021/11/19 02:24:43;;;;;;;22.95;13.6;;;;;;;1;84.39453;96537.42;;;;
2021/11/19 02:25:47;;;;;;;22.95;13.6;;;;;;;1;84.39453;96537.42;;;;
2021/11/19 02:26:50;;;;;;;22.95;13.6;;;;;;;1;84.39453;96537.42;;;;
2021/11/19 02:27:57;;;;;;;22.95;13.6;;;;;;;1;84.39453;96537.42;;;;
2021/11/19 02:29:00;;;;;;;24.4;14.45;;;;;;;0.89;84.62305;96543.34;;;;
2021/11/19 02:30:02;;;;;;;24.4;14.45;;;;;;;0.89;84.62305;96543.34;;;;
2021/11/19 02:31:08;;;;;;;24.4;14.45;;;;;;;0.89;84.62305;96543.34;;;;
2021/11/19 02:32:13;;;;;;;24.4;14.45;;;;;;;0.89;84.62305;96543.34;;;;
2021/11/19 02:33:17;;;;;;;24.4;14.45;;;;;;;0.89;84.62305;96543.34;;;;
2021/11/19 02:34:18;;;;;;;24.4;14.45;;;;;;;0.89;84.62305;96543.34;;;;
2021/11/19 02:35:22;;;;;;;24.4;14.45;;;;;;;0.89;84.62305;96543.34;;;;
2021/11/19 02:36:25;;;;;;;24.4;14.45;;;;;;;0.89;84.62305;96543.34;;;;
2021/11/19 02:37:34;;;;;;;24.4;14.45;;;;;;;0.89;84.62305;96543.34;;;;
2021/11/19 02:38:37;;;;;;;24.4;14.45;;;;;;;0.89;84.62305;96543.34;;;;
2021/11/19 02:39:43;;;;;;;23.5;14.45;;;;;;;0.84;84.49902;96566.87;;;;
2021/11/19 02:40:50;;;;;;;23.5;14.45;;;;;;;0.84;84.49902;96566.87;;;;
2021/11/19 02:41:51;;;;;;;23.5;14.45;;;;;;;0.84;84.49902;96566.87;;;;
2021/11/19 02:42:57;;;;;;;23.5;14.45;;;;;;;0.84;84.49902;96566.87;;;;
2021/11/19 02:44:00;;;;;;;23.5;14.45;;;;;;;0.84;84.49902;96566.87;;;;
2021/11/19 02:45:05;;;;;;;23.5;14.45;;;;;;;0.84;84.49902;96566.87;;;;
2021/11/19 02:46:10;;;;;;;23.5;14.45;;;;;;;0.84;84.49902;96566.87;;;;
2021/11/19 02:47:16;;;;;;;23.5;14.45;;;;;;;0.84;84.49902;96566.87;;;;
2021/11/19 02:48:19;;;;;;;23.5;14.45;;;;;;;0.84;84.49902;96566.87;;;;
2021/11/19 02:49:23;;;;;;;23.5;14.45;;;;;;;0.84;84.49902;96566.87;;;;
2021/11/19 02:50:25;;;;;;;21.05;12.95;;;;;;;0.75;84.34473;96545.14;;;;
2021/11/19 02:51:26;;;;;;;21.05;12.95;;;;;;;0.75;84.34473;96545.14;;;;
2021/11/19 02:52:29;;;;;;;21.05;12.95;;;;;;;0.75;84.34473;96545.14;;;;
2021/11/19 02:53:32;;;;;;;21.05;12.95;;;;;;;0.75;84.34473;96545.14;;;;
2021/11/19 02:54:33;;;;;;;21.05;12.95;;;;;;;0.75;84.34473;96545.14;;;;
2021/11/19 02:55:35;;;;;;;21.05;12.95;;;;;;;0.75;84.34473;96545.14;;;;
2021/11/19 02:56:38;;;;;;;21.05;12.95;;;;;;;0.75;84.34473;96545.14;;;;
2021/11/19 02:57:40;;;;;;;21.05;12.95;;;;;;;0.75;84.34473;96545.14;;;;
2021/11/19 02:58:41;;;;;;;21.05;12.95;;;;;;;0.75;84.34473;96545.14;;;;
2021/11/19 02:59:45;;;;;;;21.05;12.95;;;;;;;0.75;84.34473;96545.14;;;;
2021/11/19 03:00:46;;;;;;;23.85;13.9;;;;;;;0.67;84.43359;96551.65;;;;
2021/11/19 03:01:52;;;;;;;23.85;13.9;;;;;;;0.67;84.43359;96551.65;;;;
2021/11/19 03:02:56;;;;;;;23.85;13.9;;;;;;;0.67;84.43359;96551.65;;;;
2021/11/19 03:03:57;;;;;;;23.85;13.9;;;;;;;0.67;84.43359;96551.65;;;;
2021/11/19 03:05:06;;;;;;;23.85;13.9;;;;;;;0.67;84.43359;96551.65;;;;
2021/11/19 03:06:10;;;;;;;23.85;13.9;;;;;;;0.67;84.43359;96551.65;;;;
2021/11/19 03:07:12;;;;;;;23.85;13.9;;;;;;;0.67;84.43359;96551.65;;;;
2021/11/19 03:08:15;;;;;;;23.85;13.9;;;;;;;0.67;84.43359;96551.65;;;;
2021/11/19 03:09:15;;;;;;;23.85;13.9;;;;;;;0.67;84.43359;96551.65;;;;
2021/11/19 03:10:20;;;;;;;23.85;13.9;;;;;;;0.67;84.43359;96551.65;;;;
2021/11/19 03:11:28;;;;;;;23.25;13.5;;;;;;;0.59;84.43848;96561.77;;;;
2021/11/19 03:12:29;;;;;;;23.25;13.5;;;;;;;0.59;84.43848;96561.77;;;;
2021/11/19 03:13:33;;;;;;;23.25;13.5;;;;;;;0.59;84.43848;96561.77;;;;
2021/11/19 03:14:36;;;;;;;23.25;13.5;;;;;;;0.59;84.43848;96561.77;;;;
2021/11/19 03:15:37;;;;;;;23.25;13.5;;;;;;;0.59;84.43848;96561.77;;;;
2021/11/19 03:16:40;;;;;;;23.25;13.5;;;;;;;0.59;84.43848;96561.77;;;;
2021/11/19 03:17:42;;;;;;;23.25;13.5;;;;;;;0.59;84.43848;96561.77;;;;
2021/11/19 03:18:43;;;;;;;23.25;13.5;;;;;;;0.59;84.43848;96561.77;;;;
2021/11/19 03:19:44;;;;;;;23.25;13.5;;;;;;;0.59;84.43848;96561.77;;;;
2021/11/19 03:20:46;;;;;;;23.25;13.5;;;;;;;0.59;84.43848;96561.77;;;;
2021/11/19 03:21:52;;;;;;;23.25;13.5;;;;;;;0.59;84.43848;96561.77;;;;
2021/11/19 03:22:53;;;;;;;20.95;12.45;;;;;;;0.51;84.49609;96570.45;;;;
2021/11/19 03:23:57;;;;;;;20.95;12.45;;;;;;;0.51;84.49609;96570.45;;;;
2021/11/19 03:24:59;;;;;;;20.95;12.45;;;;;;;0.51;84.49609;96570.45;;;;
2021/11/19 03:26:01;;;;;;;20.95;12.45;;;;;;;0.51;84.49609;96570.45;;;;
2021/11/19 03:27:02;;;;;;;20.95;12.45;;;;;;;0.51;84.49609;96570.45;;;;
2021/11/19 03:28:04;;;;;;;20.95;12.45;;;;;;;0.51;84.49609;96570.45;;;;
2021/11/19 03:29:07;;;;;;;20.95;12.45;;;;;;;0.51;84.49609;96570.45;;;;
2021/11/19 03:30:10;;;;;;;20.95;12.45;;;;;;;0.51;84.49609;96570.45;;;;
2021/11/19 03:31:16;;;;;;;20.95;12.45;;;;;;;0.51;84.49609;96570.45;;;;
2021/11/19 03:32:18;;;;;;;20.95;12.45;;;;;;;0.51;84.49609;96570.45;;;;
2021/11/19 03:33:24;;;;;;;22.15;12.75;;;;;;;0.36;84.66406;96582.09;;;;
2021/11/19 03:34:29;;;;;;;22.15;12.75;;;;;;;0.36;84.66406;96582.09;;;;
2021/11/19 03:35:29;;;;;;;22.15;12.75;;;;;;;0.36;84.66406;96582.09;;;;
2021/11/19 03:36:31;;;;;;;22.15;12.75;;;;;;;0.36;84.66406;96582.09;;;;
2021/11/19 03:37:31;;;;;;;22.15;12.75;;;;;;;0.36;84.66406;96582.09;;;;
2021/11/19 03:38:32;;;;;;;22.15;12.75;;;;;;;0.36;84.66406;96582.09;;;;
2021/11/19 03:39:37;;;;;;;22.15;12.75;;;;;;;0.36;84.66406;96582.09;;;;
2021/11/19 03:40:37;;;;;;;22.15;12.75;;;;;;;0.36;84.66406;96582.09;;;;
2021/11/19 03:41:41;;;;;;;22.15;12.75;;;;;;;0.36;84.66406;96582.09;;;;
2021/11/19 03:42:44;;;;;;;22.15;12.75;;;;;;;0.36;84.66406;96582.09;;;;
2021/11/19 03:43:46;;;;;;;24.25;13.05;;;;;;;0.24;84.96484;96592.44;;;;
2021/11/19 03:44:51;;;;;;;24.25;13.05;;;;;;;0.24;84.96484;96592.44;;;;
2021/11/19 03:45:55;;;;;;;24.25;13.05;;;;;;;0.24;84.96484;96592.44;;;;
2021/11/19 03:46:59;;;;;;;24.25;13.05;;;;;;;0.24;84.96484;96592.44;;;;
2021/11/19 03:48:03;;;;;;;24.25;13.05;;;;;;;0.24;84.96484;96592.44;;;;
2021/11/19 03:49:05;;;;;;;24.25;13.05;;;;;;;0.24;84.96484;96592.44;;;;
2021/11/19 03:50:06;;;;;;;24.25;13.05;;;;;;;0.24;84.96484;96592.44;;;;
2021/11/19 03:51:11;;;;;;;24.25;13.05;;;;;;;0.24;84.96484;96592.44;;;;
2021/11/19 03:52:16;;;;;;;24.25;13.05;;;;;;;0.24;84.96484;96592.44;;;;
2021/11/19 03:53:20;;;;;;;24.25;13.05;;;;;;;0.24;84.96484;96592.44;;;;
2021/11/19 03:54:22;;;;;;;25.8;13.6;;;;;;;0.16;85.02051;96584.32;;;;
2021/11/19 03:55:26;;;;;;;25.8;13.6;;;;;;;0.16;85.02051;96584.32;;;;
2021/11/19 03:56:29;;;;;;;25.8;13.6;;;;;;;0.16;85.02051;96584.32;;;;
2021/11/19 03:57:30;;;;;;;25.8;13.6;;;;;;;0.16;85.02051;96584.32;;;;
2021/11/19 03:58:31;;;;;;;25.8;13.6;;;;;;;0.16;85.02051;96584.32;;;;
2021/11/19 03:59:35;;;;;;;25.8;13.6;;;;;;;0.16;85.02051;96584.32;;;;
2021/11/19 04:00:36;;;;;;;25.8;13.6;;;;;;;0.16;85.02051;96584.32;;;;
2021/11/19 04:01:40;;;;;;;25.8;13.6;;;;;;;0.16;85.02051;96584.32;;;;
2021/11/19 04:02:43;;;;;;;25.8;13.6;;;;;;;0.16;85.02051;96584.32;;;;
2021/11/19 04:03:44;;;;;;;25.8;13.6;;;;;;;0.16;85.02051;96584.32;;;;
2021/11/19 04:04:46;;;;;;;22.15;12.3;;;;;;;0.16;85.32227;96569.72;;;;
2021/11/19 04:05:48;;;;;;;22.15;12.3;;;;;;;0.16;85.32227;96569.72;;;;
2021/11/19 04:06:49;;;;;;;22.15;12.3;;;;;;;0.16;85.32227;96569.72;;;;
2021/11/19 04:07:51;;;;;;;22.15;12.3;;;;;;;0.16;85.32227;96569.72;;;;
2021/11/19 04:08:52;;;;;;;22.15;12.3;;;;;;;0.16;85.32227;96569.72;;;;
2021/11/19 04:09:53;;;;;;;22.15;12.3;;;;;;;0.16;85.32227;96569.72;;;;
2021/11/19 04:10:53;;;;;;;22.15;12.3;;;;;;;0.16;85.32227;96569.72;;;;
2021/11/19 04:11:54;;;;;;;22.15;12.3;;;;;;;0.16;85.32227;96569.72;;;;
2021/11/19 04:12:55;;;;;;;22.15;12.3;;;;;;;0.16;85.32227;96569.72;;;;
2021/11/19 04:13:56;;;;;;;22.15;12.3;;;;;;;0.16;85.32227;96569.72;;;;
2021/11/19 04:14:57;;;;;;;22.15;12.3;;;;;;;0.16;85.32227;96569.72;;;;
2021/11/19 04:15:58;;;;;;;17.65;10.8;;;;;;;0.16;85.29102;96560.03;;;;
2021/11/19 04:17:09;;;;;;;17.65;10.8;;;;;;;0.16;85.29102;96560.03;;;;
2021/11/19 04:18:10;;;;;;;17.65;10.8;;;;;;;0.16;85.29102;96560.03;;;;
2021/11/19 04:19:12;;;;;;;17.65;10.8;;;;;;;0.16;85.29102;96560.03;;;;
2021/11/19 04:20:15;;;;;;;17.65;10.8;;;;;;;0.16;85.29102;96560.03;;;;
2021/11/19 04:21:17;;;;;;;17.65;10.8;;;;;;;0.16;85.29102;96560.03;;;;
2021/11/19 04:22:19;;;;;;;17.65;10.8;;;;;;;0.16;85.29102;96560.03;;;;
2021/11/19 04:23:20;;;;;;;17.65;10.8;;;;;;;0.16;85.29102;96560.03;;;;
2021/11/19 04:24:21;;;;;;;17.65;10.8;;;;;;;0.16;85.29102;96560.03;;;;
2021/11/19 04:25:25;;;;;;;17.65;10.8;;;;;;;0.16;85.29102;96560.03;;;;
2021/11/19 04:26:27;;;;;;;14.55;9.250001;;;;;;;0.07;85.17871;96551.17;;;;
2021/11/19 04:27:29;;;;;;;14.55;9.250001;;;;;;;0.07;85.17871;96551.17;;;;
2021/11/19 04:28:30;;;;;;;14.55;9.250001;;;;;;;0.07;85.17871;96551.17;;;;
2021/11/19 04:29:30;;;;;;;14.55;9.250001;;;;;;;0.07;85.17871;96551.17;;;;
2021/11/19 04:30:31;;;;;;;14.55;9.250001;;;;;;;0.07;85.17871;96551.17;;;;
2021/11/19 04:31:35;;;;;;;14.55;9.250001;;;;;;;0.07;85.17871;96551.17;;;;
2021/11/19 04:32:36;;;;;;;14.55;9.250001;;;;;;;0.07;85.17871;96551.17;;;;
2021/11/19 04:33:37;;;;;;;14.55;9.250001;;;;;;;0.07;85.17871;96551.17;;;;
2021/11/19 04:34:38;;;;;;;14.55;9.250001;;;;;;;0.07;85.17871;96551.17;;;;
2021/11/19 04:35:41;;;;;;;14.55;9.250001;;;;;;;0.07;85.17871;96551.17;;;;
2021/11/19 04:36:41;;;;;;;16.3;10.55;;;;;;;-0.01;85.39258;96572.67;;;;
2021/11/19 04:37:42;;;;;;;16.3;10.55;;;;;;;-0.01;85.39258;96572.67;;;;
2021/11/19 04:38:44;;;;;;;16.3;10.55;;;;;;;-0.01;85.39258;96572.67;;;;
2021/11/19 04:39:46;;;;;;;16.3;10.55;;;;;;;-0.01;85.39258;96572.67;;;;
2021/11/19 04:40:46;;;;;;;16.3;10.55;;;;;;;-0.01;85.39258;96572.67;;;;
2021/11/19 04:41:48;;;;;;;16.3;10.55;;;;;;;-0.01;85.39258;96572.67;;;;
2021/11/19 04:42:49;;;;;;;16.3;10.55;;;;;;;-0.01;85.39258;96572.67;;;;
2021/11/19 04:43:51;;;;;;;16.3;10.55;;;;;;;-0.01;85.39258;96572.67;;;;
2021/11/19 04:44:51;;;;;;;16.3;10.55;;;;;;;-0.01;85.39258;96572.67;;;;
2021/11/19 04:45:52;;;;;;;16.3;10.55;;;;;;;-0.01;85.39258;96572.67;;;;
2021/11/19 04:46:54;;;;;;;16.3;10.55;;;;;;;-0.01;85.39258;96572.67;;;;
2021/11/19 04:47:55;;;;;;;19.45;11.25;;;;;;;-0.02;85.54492;96566.61;;;;
2021/11/19 04:48:57;;;;;;;19.45;11.25;;;;;;;-0.02;85.54492;96566.61;;;;
2021/11/19 04:49:57;;;;;;;19.45;11.25;;;;;;;-0.02;85.54492;96566.61;;;;
2021/11/19 04:50:58;;;;;;;19.45;11.25;;;;;;;-0.02;85.54492;96566.61;;;;
2021/11/19 04:51:58;;;;;;;19.45;11.25;;;;;;;-0.02;85.54492;96566.61;;;;
2021/11/19 04:52:59;;;;;;;19.45;11.25;;;;;;;-0.02;85.54492;96566.61;;;;
2021/11/19 04:54:00;;;;;;;19.45;11.25;;;;;;;-0.02;85.54492;96566.61;;;;
2021/11/19 04:55:03;;;;;;;19.45;11.25;;;;;;;-0.02;85.54492;96566.61;;;;
2021/11/19 04:56:06;;;;;;;19.45;11.25;;;;;;;-0.02;85.54492;96566.61;;;;
2021/11/19 04:57:07;;;;;;;19.45;11.25;;;;;;;-0.02;85.54492;96566.61;;;;
2021/11/19 04:58:09;;;;;;;20.25;11.85;;;;;;;0.01;85.70898;96551.71;;;;
2021/11/19 04:59:10;;;;;;;20.25;11.85;;;;;;;0.01;85.70898;96551.71;;;;
2021/11/19 05:00:12;;;;;;;20.25;11.85;;;;;;;0.01;85.70898;96551.71;;;;
2021/11/19 05:01:17;;;;;;;20.25;11.85;;;;;;;0.01;85.70898;96551.71;;;;
2021/11/19 05:02:21;;;;;;;20.25;11.85;;;;;;;0.01;85.70898;96551.71;;;;
2021/11/19 05:03:22;;;;;;;20.25;11.85;;;;;;;0.01;85.70898;96551.71;;;;
2021/11/19 05:04:23;;;;;;;20.25;11.85;;;;;;;0.01;85.70898;96551.71;;;;
2021/11/19 05:05:26;;;;;;;20.25;11.85;;;;;;;0.01;85.70898;96551.71;;;;
2021/11/19 05:06:26;;;;;;;20.25;11.85;;;;;;;0.01;85.70898;96551.71;;;;
2021/11/19 05:07:27;;;;;;;20.25;11.85;;;;;;;0.01;85.70898;96551.71;;;;
2021/11/19 05:08:27;;;;;;;20.25;11.85;;;;;;;0.01;85.70898;96551.71;;;;
2021/11/19 05:09:30;;;;;;;22.9;12.55;;;;;;;0.07;85.76172;96548;;;;
2021/11/19 05:10:31;;;;;;;22.9;12.55;;;;;;;0.07;85.76172;96548;;;;
2021/11/19 05:11:33;;;;;;;22.9;12.55;;;;;;;0.07;85.76172;96548;;;;
2021/11/19 05:12:45;;;;;;;22.9;12.55;;;;;;;0.07;85.76172;96548;;;;
2021/11/19 05:13:50;;;;;;;22.9;12.55;;;;;;;0.07;85.76172;96548;;;;
2021/11/19 05:14:51;;;;;;;22.9;12.55;;;;;;;0.07;85.76172;96548;;;;
2021/11/19 05:15:52;;;;;;;22.9;12.55;;;;;;;0.07;85.76172;96548;;;;
2021/11/19 05:16:54;;;;;;;22.9;12.55;;;;;;;0.07;85.76172;96548;;;;
2021/11/19 05:17:55;;;;;;;22.9;12.55;;;;;;;0.07;85.76172;96548;;;;
2021/11/19 05:18:56;;;;;;;22.9;12.55;;;;;;;0.07;85.76172;96548;;;;
2021/11/19 05:19:57;;;;;;;23.4;13.45;;;;;;;0.1;85.71484;96554.85;;;;
2021/11/19 05:20:57;;;;;;;23.4;13.45;;;;;;;0.1;85.71484;96554.85;;;;
2021/11/19 05:21:59;;;;;;;23.4;13.45;;;;;;;0.1;85.71484;96554.85;;;;
2021/11/19 05:23:00;;;;;;;23.4;13.45;;;;;;;0.1;85.71484;96554.85;;;;
2021/11/19 05:24:01;;;;;;;23.4;13.45;;;;;;;0.1;85.71484;96554.85;;;;
2021/11/19 05:25:03;;;;;;;23.4;13.45;;;;;;;0.1;85.71484;96554.85;;;;
2021/11/19 05:26:05;;;;;;;23.4;13.45;;;;;;;0.1;85.71484;96554.85;;;;
2021/11/19 05:27:06;;;;;;;23.4;13.45;;;;;;;0.1;85.71484;96554.85;;;;
2021/11/19 05:28:07;;;;;;;23.4;13.45;;;;;;;0.1;85.71484;96554.85;;;;
2021/11/19 05:29:08;;;;;;;23.4;13.45;;;;;;;0.1;85.71484;96554.85;;;;
2021/11/19 05:30:09;;;;;;;26.2;14.25;;;;;;;0.11;85.7793;96544.56;;;;
2021/11/19 05:31:11;;;;;;;26.2;14.25;;;;;;;0.11;85.7793;96544.56;;;;
2021/11/19 05:32:14;;;;;;;26.2;14.25;;;;;;;0.11;85.7793;96544.56;;;;
2021/11/19 05:33:14;;;;;;;26.2;14.25;;;;;;;0.11;85.7793;96544.56;;;;
2021/11/19 05:34:19;;;;;;;26.2;14.25;;;;;;;0.11;85.7793;96544.56;;;;
2021/11/19 05:35:21;;;;;;;26.2;14.25;;;;;;;0.11;85.7793;96544.56;;;;
2021/11/19 05:36:22;;;;;;;26.2;14.25;;;;;;;0.11;85.7793;96544.56;;;;
2021/11/19 05:37:23;;;;;;;26.2;14.25;;;;;;;0.11;85.7793;96544.56;;;;
2021/11/19 05:38:24;;;;;;;26.2;14.25;;;;;;;0.11;85.7793;96544.56;;;;
2021/11/19 05:39:24;;;;;;;26.2;14.25;;;;;;;0.11;85.7793;96544.56;;;;
2021/11/19 05:40:25;;;;;;;26.2;14.25;;;;;;;0.11;85.7793;96544.56;;;;
2021/11/19 05:41:26;;;;;;;31.2;14.5;;;;;;;0.19;86.13184;96546.89;;;;
2021/11/19 05:42:28;;;;;;;31.2;14.5;;;;;;;0.19;86.13184;96546.89;;;;
2021/11/19 05:43:28;;;;;;;31.2;14.5;;;;;;;0.19;86.13184;96546.89;;;;
2021/11/19 05:44:29;;;;;;;31.2;14.5;;;;;;;0.19;86.13184;96546.89;;;;
2021/11/19 05:45:30;;;;;;;31.2;14.5;;;;;;;0.19;86.13184;96546.89;;;;
2021/11/19 05:46:39;;;;;;;31.2;14.5;;;;;;;0.19;86.13184;96546.89;;;;
2021/11/19 05:47:40;;;;;;;31.2;14.5;;;;;;;0.19;86.13184;96546.89;;;;
2021/11/19 05:48:41;;;;;;;31.2;14.5;;;;;;;0.19;86.13184;96546.89;;;;
2021/11/19 05:49:42;;;;;;;31.2;14.5;;;;;;;0.19;86.13184;96546.89;;;;
2021/11/19 05:50:43;;;;;;;31.2;14.5;;;;;;;0.19;86.13184;96546.89;;;;
2021/11/19 05:51:45;;;;;;;36.6;16.55;;;;;;;0.43;86.29395;96533.97;;;;
2021/11/19 05:52:48;;;;;;;36.6;16.55;;;;;;;0.43;86.29395;96533.97;;;;
2021/11/19 05:53:49;;;;;;;36.6;16.55;;;;;;;0.43;86.29395;96533.97;;;;
2021/11/19 05:54:50;;;;;;;36.6;16.55;;;;;;;0.43;86.29395;96533.97;;;;